createdAt,value
2016-09-25T00:02:04.173Z,39.2
2016-09-25T00:07:04.246Z,45.6
2016-09-25T00:12:04.019Z,45.4
2016-09-25T00:17:03.720Z,45.3
2016-09-25T00:22:03.872Z,45.3
2016-09-25T00:27:04.438Z,45.4
2016-09-25T00:32:03.959Z,45.3
2016-09-25T00:37:03.569Z,45.3
2016-09-25T00:42:04.190Z,45.2
2016-09-25T00:47:03.889Z,45.2
2016-09-25T00:52:03.541Z,45.2
2016-09-25T00:57:04.054Z,45.2
2016-09-25T01:02:03.894Z,45.2
2016-09-25T01:07:03.792Z,45.2
2016-09-25T01:12:04.315Z,45.2
2016-09-25T01:17:04.019Z,45.2
2016-09-25T01:22:04.245Z,45.2
2016-09-25T01:27:03.707Z,45.2
2016-09-25T01:32:04.151Z,45.2
2016-09-25T01:37:03.822Z,45.2
2016-09-25T01:42:03.428Z,45.3
2016-09-25T01:47:03.829Z,45.3
2016-09-25T01:52:03.816Z,45.3
2016-09-25T01:57:03.334Z,45.3
2016-09-25T02:02:03.660Z,45.2
2016-09-25T02:07:04.082Z,45.1
2016-09-25T02:12:03.502Z,45.2
2016-09-25T02:17:04.021Z,45.2
2016-09-25T02:22:03.810Z,45.1
2016-09-25T02:27:04.276Z,45.2
2016-09-25T02:32:03.880Z,45.2
2016-09-25T02:37:03.524Z,45.2
2016-09-25T02:42:03.916Z,45.0
2016-09-25T02:47:04.103Z,45.0
2016-09-25T02:52:03.349Z,45.0
2016-09-25T02:57:03.607Z,45.1
2016-09-25T03:02:03.889Z,45.1
2016-09-25T03:07:04.247Z,45.2
2016-09-25T03:12:03.592Z,45.0
2016-09-25T03:17:04.236Z,45.0
2016-09-25T03:22:04.246Z,45.0
2016-09-25T03:27:03.499Z,44.9
2016-09-25T03:32:03.996Z,45.0
2016-09-25T03:37:04.074Z,44.9
2016-09-25T03:42:04.298Z,44.9
2016-09-25T03:47:03.913Z,45.0
2016-09-25T03:52:04.286Z,44.9
2016-09-25T03:57:03.583Z,45.0
2016-09-25T04:02:03.872Z,45.0
2016-09-25T04:07:03.950Z,45.0
2016-09-25T04:12:04.220Z,44.9
2016-09-25T04:17:04.415Z,44.8
2016-09-25T04:22:03.649Z,44.8
2016-09-25T04:27:03.734Z,44.9
2016-09-25T04:32:04.181Z,44.9
2016-09-25T04:37:04.172Z,44.8
2016-09-25T04:42:03.827Z,44.9
2016-09-25T04:47:16.265Z,44.9
2016-09-25T04:52:03.758Z,45.0
2016-09-25T04:57:04.194Z,44.9
2016-09-25T05:02:29.262Z,44.9
2016-09-25T05:07:04.270Z,45.1
2016-09-25T05:12:03.654Z,44.9
2016-09-25T05:17:32.166Z,45.0
2016-09-25T05:22:03.868Z,45.0
2016-09-25T05:27:03.826Z,45.0
2016-09-25T05:32:31.448Z,45.0
2016-09-25T05:37:08.966Z,45.2
2016-09-25T05:42:03.506Z,44.9
2016-09-25T05:47:30.978Z,44.9
2016-09-25T05:52:03.387Z,44.8
2016-09-25T05:57:03.452Z,44.6
2016-09-25T06:02:31.523Z,44.4
2016-09-25T06:07:04.198Z,44.3
2016-09-25T06:12:03.724Z,44.2
2016-09-25T06:17:35.968Z,44.1
2016-09-25T06:22:03.902Z,44.1
2016-09-25T06:27:03.561Z,44.1
2016-09-25T06:32:35.747Z,43.7
2016-09-25T06:37:03.578Z,43.7
2016-09-25T06:42:04.150Z,43.8
2016-09-25T06:47:36.891Z,43.7
2016-09-25T06:52:03.904Z,43.6
2016-09-25T06:57:03.634Z,43.6
2016-09-25T07:02:31.758Z,43.5
2016-09-25T07:07:04.307Z,43.5
2016-09-25T07:12:04.052Z,43.5
2016-09-25T07:17:31.717Z,43.4
2016-09-25T07:22:03.855Z,43.2
2016-09-25T07:27:03.886Z,43.5
2016-09-25T07:32:32.011Z,43.4
2016-09-25T07:37:04.229Z,43.4
2016-09-25T07:42:03.856Z,43.3
2016-09-25T07:47:32.056Z,43.4
2016-09-25T07:52:03.793Z,43.4
2016-09-25T07:57:04.278Z,43.3
2016-09-25T08:02:13.361Z,43.4
2016-09-25T08:07:04.828Z,43.4
2016-09-25T08:12:03.759Z,43.4
2016-09-25T08:17:37.919Z,43.4
2016-09-25T08:22:04.332Z,43.6
2016-09-25T08:27:04.363Z,43.7
2016-09-25T08:32:35.096Z,43.7
2016-09-25T08:37:04.099Z,43.8
2016-09-25T08:42:04.221Z,43.9
2016-09-25T08:47:41.556Z,44.1
2016-09-25T08:52:04.143Z,44.2
2016-09-25T08:57:04.017Z,44.3
2016-09-25T09:02:32.375Z,44.7
2016-09-25T09:07:03.720Z,44.7
2016-09-25T09:12:04.274Z,44.7
2016-09-25T09:17:32.922Z,44.8
2016-09-25T09:22:03.946Z,45.1
2016-09-25T09:27:03.492Z,45.2
2016-09-25T09:32:36.067Z,45.3
2016-09-25T09:37:04.100Z,45.5
2016-09-25T09:42:03.641Z,45.6
2016-09-25T09:47:30.253Z,45.8
2016-09-25T09:52:03.685Z,46.0
2016-09-25T09:57:04.317Z,46.2
2016-09-25T10:02:34.872Z,46.3
2016-09-25T10:07:03.369Z,46.5
2016-09-25T10:12:03.809Z,46.3
2016-09-25T10:17:35.084Z,46.7
2016-09-25T10:22:03.865Z,46.7
2016-09-25T10:27:04.044Z,46.5
2016-09-25T10:32:37.341Z,47.1
2016-09-25T10:37:03.856Z,47.1
2016-09-25T10:42:04.125Z,47.6
2016-09-25T10:47:31.957Z,47.5
2016-09-25T10:52:03.636Z,47.5
2016-09-25T10:57:03.559Z,47.6
2016-09-25T11:02:34.580Z,47.7
2016-09-25T11:07:04.184Z,48.4
2016-09-25T11:12:03.488Z,48.3
2016-09-25T11:17:31.214Z,48.3
2016-09-25T11:22:03.781Z,48.3
2016-09-25T11:27:03.996Z,48.3
2016-09-25T11:32:36.976Z,48.2
2016-09-25T11:37:04.198Z,48.7
2016-09-25T11:42:04.081Z,48.6
2016-09-25T11:47:41.352Z,48.5
2016-09-25T11:52:03.438Z,48.2
2016-09-25T11:57:03.705Z,48.3
2016-09-25T12:02:32.212Z,48.6
2016-09-25T12:07:03.802Z,48.7
2016-09-25T12:12:03.516Z,48.7
2016-09-25T12:17:31.898Z,48.3
2016-09-25T12:22:03.882Z,48.7
2016-09-25T12:27:04.082Z,48.4
2016-09-25T12:32:31.438Z,48.4
2016-09-25T12:37:03.775Z,48.4
2016-09-25T12:42:03.461Z,48.1
2016-09-25T12:47:30.530Z,48.7
2016-09-25T12:52:03.925Z,48.7
2016-09-25T12:57:03.852Z,48.4
2016-09-25T13:02:31.514Z,48.6
2016-09-25T13:07:03.703Z,48.7
2016-09-25T13:12:04.102Z,48.7
2016-09-25T13:17:36.903Z,48.2
2016-09-25T13:22:03.947Z,48.6
2016-09-25T13:27:03.831Z,48.7
2016-09-25T13:32:31.793Z,48.7
2016-09-25T13:37:03.895Z,49.5
2016-09-25T13:42:04.139Z,50.1
2016-09-25T13:47:32.456Z,50.3
2016-09-25T13:52:03.738Z,50.7
2016-09-25T13:57:03.754Z,50.0
2016-09-25T20:02:03.796Z,47.8
2016-09-25T20:07:03.604Z,47.8
2016-09-25T20:12:03.602Z,47.6
2016-09-25T20:17:04.102Z,47.6
2016-09-25T20:22:03.545Z,47.7
2016-09-25T20:27:04.387Z,47.6
2016-09-25T20:32:04.233Z,47.6
2016-09-25T20:37:04.019Z,47.7
2016-09-25T20:42:04.105Z,47.5
2016-09-25T20:47:03.809Z,47.3
2016-09-25T20:52:03.479Z,47.2
2016-09-25T20:57:04.239Z,47.3
2016-09-25T21:02:03.706Z,47.3
2016-09-25T21:07:04.189Z,47.2
2016-09-25T21:12:03.561Z,47.1
2016-09-25T21:17:04.175Z,47.1
2016-09-25T21:22:03.527Z,47.1
2016-09-25T21:27:03.741Z,47.1
2016-09-25T21:32:04.011Z,47.0
2016-09-25T21:37:04.137Z,47.0
2016-09-25T21:42:04.059Z,47.2
2016-09-25T21:47:04.201Z,47.0
2016-09-25T21:52:04.034Z,47.0
2016-09-25T21:57:04.018Z,46.9
2016-09-25T22:02:03.802Z,46.9
2016-09-25T22:07:03.928Z,46.9
2016-09-25T22:12:03.708Z,46.8
2016-09-25T22:22:03.923Z,46.5
2016-09-25T22:27:03.898Z,47.0
2016-09-25T22:32:03.467Z,47.0
2016-09-25T22:37:03.678Z,46.8
2016-09-25T22:42:04.257Z,46.8
2016-09-25T22:47:03.561Z,46.9
2016-09-25T22:52:04.110Z,46.9
2016-09-25T22:57:03.572Z,46.9
2016-09-25T23:02:03.842Z,47.1
2016-09-25T23:07:04.232Z,47.0
2016-09-25T23:12:03.749Z,46.8
2016-09-25T23:17:08.539Z,47.1
2016-09-25T23:22:03.988Z,47.0
2016-09-25T23:27:04.303Z,46.8
2016-09-25T23:32:03.839Z,46.8
2016-09-25T23:37:04.013Z,46.9
2016-09-25T23:42:03.742Z,46.9
2016-09-25T23:47:04.353Z,46.8
2016-09-25T23:52:03.436Z,46.8
2016-09-25T23:57:04.065Z,46.7
